Richmond (North Yorkshire), United Kingdom
Current Conditions -  °F | °C
As of 1:50 PM on Saturday 22 Nov 2014 (Local Time) from EGXE Reporting Station
Overcast Overcast  
Wind Chill: 52°   Ceiling: 100
Heat Index: 52°   Visibility: 0.75mi
Dew Point: 52°   Wind: 8mph
Humidity: 100%   Direction: 160°SSE
Pressure: 29.83"   Gusts: NA
Location:  54.41°N, 1.74°W
Report Text: EGXE 221350Z AUTO 16007KT 1200 OVC001/// 11/11 Q1010
Loading
Personal Weather Stations






























Interactive Weather Map New forecast layout! Learn more

10-Day Weather Forecast

Advertisements
Track Severe Weather on mobile